Time;durP1;ratioP1;P1;durP2;ratioP2;P2;SDS_P1;SDS_P2;PMS_P1;PMS_P2;Temp;Humidity;BMP_temperature;BMP_pressure;BME280_temperature;BME280_humidity;BME280_pressure;Samples;Min_cycle;Max_cycle;Signal;HPM_P1;HPM_P2
2023/10/22 00:02:05;;;;;;;30.63;17.75;;;;;;;;;;4974170;28;20042;-70
2023/10/22 00:04:31;;;;;;;30.27;17.23;;;;;;;;;;4974130;28;20073;-70
2023/10/22 00:06:58;;;;;;;36.15;17.10;;;;;;;;;;4973935;28;20045;-70
2023/10/22 00:09:24;;;;;;;26.90;14.35;;;;;;;;;;4964075;28;20031;-70
2023/10/22 00:11:49;;;;;;;32.05;16.98;;;;;;;;;;4966596;28;20027;-70
2023/10/22 00:14:15;;;;;;;26.30;15.55;;;;;;;;;;4972583;28;20413;-71
2023/10/22 00:16:41;;;;;;;27.75;16.88;;;;;;;;;;4970004;28;20390;-69
2023/10/22 00:19:06;;;;;;;27.55;15.40;;;;;;;;;;4972804;28;20430;-70
2023/10/22 00:21:33;;;;;;;28.10;15.68;;;;;;;;;;4973561;28;20038;-70
2023/10/22 00:23:58;;;;;;;23.10;14.20;;;;;;;;;;4973188;28;20103;-70
2023/10/22 00:26:24;;;;;;;25.58;15.32;;;;;;;;;;4972833;28;20110;-70
2023/10/22 00:28:51;;;;;;;23.27;15.63;;;;;;;;;;4973231;28;20592;-70
2023/10/22 00:31:16;;;;;;;31.33;16.73;;;;;;;;;;4972024;28;20182;-71
2023/10/22 00:33:42;;;;;;;21.88;14.38;;;;;;;;;;4971577;28;20078;-70
2023/10/22 00:36:08;;;;;;;24.05;14.93;;;;;;;;;;4970158;28;20039;-70
2023/10/22 00:38:34;;;;;;;32.97;16.45;;;;;;;;;;4973080;28;20037;-70
2023/10/22 00:41:00;;;;;;;30.30;15.48;;;;;;;;;;4973461;28;20043;-70
2023/10/22 00:43:25;;;;;;;23.13;13.90;;;;;;;;;;4973383;28;20089;-69
2023/10/22 00:45:52;;;;;;;28.17;13.55;;;;;;;;;;4972103;28;20106;-69
2023/10/22 00:48:20;;;;;;;26.42;12.52;;;;;;;;;;4971843;28;20033;-71
2023/10/22 00:50:46;;;;;;;21.08;12.70;;;;;;;;;;4973288;28;20038;-71
2023/10/22 00:53:15;;;;;;;22.70;12.25;;;;;;;;;;4972057;28;20393;-70
2023/10/22 00:55:43;;;;;;;22.35;12.27;;;;;;;;;;4971722;28;20035;-71
2023/10/22 00:58:09;;;;;;;21.58;12.43;;;;;;;;;;4971827;28;20484;-70
2023/10/22 01:00:36;;;;;;;21.30;11.98;;;;;;;;;;4971375;28;20054;-70
2023/10/22 01:03:03;;;;;;;25.33;11.45;;;;;;;;;;4971678;28;20497;-70
2023/10/22 01:05:29;;;;;;;22.58;11.05;;;;;;;;;;4972978;28;20194;-70
2023/10/22 01:07:56;;;;;;;22.85;11.32;;;;;;;;;;4971629;28;20109;-70
2023/10/22 01:10:22;;;;;;;21.63;11.00;;;;;;;;;;4971712;28;20042;-70
2023/10/22 01:12:47;;;;;;;17.50;11.52;;;;;;;;;;4971874;28;20114;-70
2023/10/22 01:15:14;;;;;;;22.60;12.05;;;;;;;;;;4971457;28;20030;-71
2023/10/22 01:17:40;;;;;;;26.75;12.23;;;;;;;;;;4971740;28;20040;-71
2023/10/22 01:20:09;;;;;;;19.58;11.10;;;;;;;;;;4971863;28;20038;-70
2023/10/22 01:22:34;;;;;;;20.48;11.68;;;;;;;;;;4971717;28;20034;-71
2023/10/22 01:25:01;;;;;;;17.42;10.68;;;;;;;;;;4972626;28;20034;-71
2023/10/22 01:27:27;;;;;;;18.75;11.07;;;;;;;;;;4972700;28;20508;-70
2023/10/22 01:29:53;;;;;;;22.45;11.45;;;;;;;;;;4971524;28;20519;-70
2023/10/22 01:32:18;;;;;;;19.75;10.00;;;;;;;;;;4973008;28;20097;-70
2023/10/22 01:34:44;;;;;;;24.70;12.30;;;;;;;;;;4971706;28;20145;-70
2023/10/22 01:37:10;;;;;;;20.85;12.70;;;;;;;;;;4972691;28;20081;-70
2023/10/22 01:39:36;;;;;;;25.85;13.75;;;;;;;;;;4971433;28;20039;-71
2023/10/22 01:42:04;;;;;;;35.50;19.83;;;;;;;;;;4973010;28;20105;-70
2023/10/22 01:44:29;;;;;;;30.75;18.70;;;;;;;;;;4971422;28;20039;-70
2023/10/22 01:46:55;;;;;;;27.08;17.50;;;;;;;;;;4971646;28;20029;-70
2023/10/22 01:49:22;;;;;;;32.47;18.45;;;;;;;;;;4971937;28;20138;-70
2023/10/22 01:51:49;;;;;;;27.25;18.20;;;;;;;;;;4971563;28;20105;-70
2023/10/22 01:54:14;;;;;;;30.33;18.73;;;;;;;;;;4970472;28;20382;-70
2023/10/22 01:56:40;;;;;;;36.33;18.08;;;;;;;;;;4972452;28;20071;-70
2023/10/22 01:59:06;;;;;;;41.05;19.60;;;;;;;;;;4971114;28;20043;-70
2023/10/22 02:01:32;;;;;;;33.75;18.50;;;;;;;;;;4971068;28;20034;-70
2023/10/22 02:03:57;;;;;;;30.92;17.60;;;;;;;;;;4971225;28;20046;-70
2023/10/22 02:06:24;;;;;;;27.63;14.77;;;;;;;;;;4971991;28;20097;-70
2023/10/22 02:08:50;;;;;;;26.30;16.23;;;;;;;;;;4972010;28;20130;-71
2023/10/22 02:11:17;;;;;;;26.08;16.02;;;;;;;;;;4970950;28;20030;-70
2023/10/22 02:13:43;;;;;;;27.08;16.13;;;;;;;;;;4987341;28;20162;-70
2023/10/22 02:16:09;;;;;;;25.38;15.48;;;;;;;;;;4960163;28;20181;-70
2023/10/22 02:18:34;;;;;;;29.50;15.00;;;;;;;;;;4974574;28;20513;-71
2023/10/22 02:21:02;;;;;;;25.63;13.18;;;;;;;;;;4974392;28;20384;-71
2023/10/22 02:23:28;;;;;;;17.73;12.05;;;;;;;;;;4976233;28;20046;-71
2023/10/22 02:25:54;;;;;;;19.92;11.43;;;;;;;;;;4990903;28;20058;-71
2023/10/22 02:28:20;;;;;;;27.23;12.48;;;;;;;;;;4975729;28;20046;-71
2023/10/22 02:30:50;;;;;;;22.00;11.48;;;;;;;;;;4974714;28;20038;-71
2023/10/22 02:33:17;;;;;;;23.52;12.20;;;;;;;;;;4974518;28;20047;-71
2023/10/22 02:35:44;;;;;;;26.20;12.90;;;;;;;;;;4974528;28;20050;-71
2023/10/22 02:38:15;;;;;;;25.38;14.65;;;;;;;;;;4975833;28;20031;-71
2023/10/22 02:40:42;;;;;;;27.60;16.13;;;;;;;;;;4974284;28;20038;-71
2023/10/22 02:43:08;;;;;;;27.05;17.77;;;;;;;;;;4990611;28;20031;-71
2023/10/22 02:45:35;;;;;;;36.08;18.02;;;;;;;;;;4974301;28;20034;-71
2023/10/22 02:48:00;;;;;;;30.75;18.23;;;;;;;;;;4975528;28;20200;-71
2023/10/22 02:50:27;;;;;;;29.73;18.45;;;;;;;;;;4975361;28;20086;-70
2023/10/22 02:52:53;;;;;;;23.42;16.33;;;;;;;;;;4975665;28;20473;-71
2023/10/22 02:55:20;;;;;;;29.35;17.55;;;;;;;;;;4974071;28;20517;-70
2023/10/22 02:57:46;;;;;;;25.77;15.60;;;;;;;;;;4964793;28;20070;-70
2023/10/22 03:00:14;;;;;;;28.05;15.38;;;;;;;;;;4968071;28;20038;-71
2023/10/22 03:02:40;;;;;;;28.17;15.85;;;;;;;;;;4973509;28;20393;-71
2023/10/22 03:05:06;;;;;;;32.38;15.73;;;;;;;;;;4974332;28;20046;-70
2023/10/22 03:07:33;;;;;;;26.95;14.65;;;;;;;;;;4974936;28;20031;-70
2023/10/22 03:09:59;;;;;;;20.85;13.77;;;;;;;;;;4993296;28;20042;-70
2023/10/22 03:12:25;;;;;;;26.55;15.55;;;;;;;;;;4989376;28;20496;-70
2023/10/22 03:14:54;;;;;;;30.80;16.10;;;;;;;;;;4974357;28;20031;-70
2023/10/22 03:17:20;;;;;;;27.75;15.40;;;;;;;;;;4972992;28;20031;-70
2023/10/22 03:19:46;;;;;;;26.30;14.48;;;;;;;;;;4973266;28;20037;-70
2023/10/22 03:22:13;;;;;;;23.67;13.23;;;;;;;;;;4973229;28;20425;-71
2023/10/22 03:24:38;;;;;;;28.42;15.55;;;;;;;;;;4973820;28;20433;-70
2023/10/22 03:27:05;;;;;;;35.33;15.73;;;;;;;;;;4973073;28;20066;-70
2023/10/22 03:29:32;;;;;;;25.25;15.73;;;;;;;;;;4972086;28;20046;-70
2023/10/22 03:31:58;;;;;;;27.92;16.13;;;;;;;;;;4974566;28;20039;-70
2023/10/22 03:34:26;;;;;;;29.02;15.60;;;;;;;;;;4974465;28;20464;-71
2023/10/22 03:36:52;;;;;;;30.95;15.48;;;;;;;;;;4974234;28;20454;-70
2023/10/22 03:39:18;;;;;;;25.20;14.55;;;;;;;;;;4974709;28;20041;-69
2023/10/22 03:41:44;;;;;;;32.97;16.33;;;;;;;;;;4973172;28;20070;-72
2023/10/22 03:44:10;;;;;;;30.00;15.60;;;;;;;;;;4972975;28;20030;-70
2023/10/22 03:46:36;;;;;;;22.70;14.50;;;;;;;;;;4973082;28;20114;-71
2023/10/22 03:49:02;;;;;;;32.90;16.00;;;;;;;;;;4969260;28;20109;-70
2023/10/22 03:51:28;;;;;;;22.13;14.18;;;;;;;;;;4972177;28;20057;-69
2023/10/22 03:53:53;;;;;;;33.65;16.17;;;;;;;;;;4972229;28;20481;-70
2023/10/22 03:56:20;;;;;;;23.48;13.45;;;;;;;;;;4973212;28;20062;-71
2023/10/22 03:58:46;;;;;;;22.35;13.50;;;;;;;;;;4972668;28;20050;-71
2023/10/22 04:01:12;;;;;;;26.65;14.45;;;;;;;;;;4973374;28;20084;-71
2023/10/22 04:03:37;;;;;;;33.88;15.40;;;;;;;;;;4960229;28;20027;-70
2023/10/22 04:06:03;;;;;;;28.33;15.27;;;;;;;;;;4954199;29;20027;-71
2023/10/22 04:08:29;;;;;;;28.52;14.50;;;;;;;;;;4953793;29;20393;-70
2023/10/22 04:10:55;;;;;;;33.70;14.05;;;;;;;;;;4953982;28;20050;-71
2023/10/22 04:13:22;;;;;;;25.95;15.45;;;;;;;;;;4954015;28;20023;-71
2023/10/22 04:15:48;;;;;;;32.38;14.40;;;;;;;;;;4953740;28;20544;-71
2023/10/22 04:18:16;;;;;;;25.27;14.40;;;;;;;;;;4954521;28;20079;-70
2023/10/22 04:20:42;;;;;;;26.67;14.18;;;;;;;;;;4973674;28;20073;-71
2023/10/22 04:23:11;;;;;;;33.95;14.98;;;;;;;;;;4973710;28;20113;-71
2023/10/22 04:25:40;;;;;;;23.88;14.77;;;;;;;;;;4973534;28;20039;-71
2023/10/22 04:28:09;;;;;;;22.85;14.85;;;;;;;;;;4973044;28;20145;-70
2023/10/22 04:30:39;;;;;;;22.08;13.82;;;;;;;;;;4973067;28;20117;-70
2023/10/22 04:33:05;;;;;;;25.05;13.60;;;;;;;;;;4972806;28;20027;-71
2023/10/22 04:35:33;;;;;;;28.33;13.02;;;;;;;;;;4969283;28;20050;-70
2023/10/22 04:37:59;;;;;;;25.38;13.23;;;;;;;;;;4971192;28;20034;-71
2023/10/22 04:40:26;;;;;;;28.35;13.93;;;;;;;;;;4970988;28;20058;-71
2023/10/22 04:42:59;;;;;;;25.13;12.70;;;;;;;;;;4967775;28;20027;-70
2023/10/22 04:45:26;;;;;;;23.58;13.05;;;;;;;;;;4973467;28;20120;-71
2023/10/22 04:47:53;;;;;;;23.17;12.30;;;;;;;;;;4971404;28;20489;-70
2023/10/22 04:50:19;;;;;;;24.65;11.55;;;;;;;;;;4972194;28;20540;-70
2023/10/22 04:52:44;;;;;;;26.40;12.38;;;;;;;;;;4973064;28;20027;-70
2023/10/22 04:55:11;;;;;;;22.60;11.80;;;;;;;;;;4972599;28;20049;-70
2023/10/22 04:57:36;;;;;;;26.38;12.15;;;;;;;;;;4972466;28;20133;-71
2023/10/22 05:00:07;;;;;;;27.58;11.32;;;;;;;;;;4972705;28;20118;-71
2023/10/22 05:02:33;;;;;;;24.23;11.27;;;;;;;;;;4973121;28;20037;-71
2023/10/22 05:04:59;;;;;;;21.92;10.98;;;;;;;;;;4972993;28;20081;-71
2023/10/22 05:07:24;;;;;;;14.55;9.95;;;;;;;;;;4973526;28;20346;-71
2023/10/22 05:09:50;;;;;;;27.83;10.95;;;;;;;;;;4967638;28;20417;-71
2023/10/22 05:12:16;;;;;;;21.17;11.35;;;;;;;;;;4973230;28;20043;-71
2023/10/22 05:14:42;;;;;;;21.33;11.13;;;;;;;;;;4972618;28;20031;-70
2023/10/22 05:17:08;;;;;;;21.77;10.20;;;;;;;;;;4972603;28;20041;-72
2023/10/22 05:19:34;;;;;;;22.90;11.13;;;;;;;;;;4972786;28;20026;-70
2023/10/22 05:22:00;;;;;;;23.20;10.55;;;;;;;;;;4972624;28;20045;-70
2023/10/22 05:24:26;;;;;;;25.92;11.50;;;;;;;;;;4972434;28;20026;-70
2023/10/22 05:26:52;;;;;;;19.38;9.95;;;;;;;;;;4972502;28;20162;-71
2023/10/22 05:29:18;;;;;;;22.27;10.65;;;;;;;;;;4968184;28;20023;-70
2023/10/22 05:31:44;;;;;;;18.95;9.52;;;;;;;;;;4972579;28;20037;-71
2023/10/22 05:34:09;;;;;;;22.63;10.50;;;;;;;;;;4972635;28;20022;-71
2023/10/22 05:36:35;;;;;;;24.45;11.20;;;;;;;;;;4972447;28;20089;-70
2023/10/22 05:39:01;;;;;;;26.17;10.18;;;;;;;;;;4972531;28;20022;-71
2023/10/22 05:41:28;;;;;;;18.13;10.35;;;;;;;;;;4972697;28;20389;-70
2023/10/22 05:44:01;;;;;;;17.00;9.40;;;;;;;;;;4972063;28;20031;-70
2023/10/22 05:46:28;;;;;;;16.92;9.13;;;;;;;;;;4972524;28;20081;-70
2023/10/22 05:48:54;;;;;;;19.48;9.43;;;;;;;;;;4976466;28;20443;-72
2023/10/22 05:51:20;;;;;;;21.50;9.88;;;;;;;;;;4975499;28;20027;-70
2023/10/22 05:53:46;;;;;;;22.95;10.00;;;;;;;;;;4975926;28;20102;-71
2023/10/22 05:56:12;;;;;;;19.20;9.77;;;;;;;;;;4976265;28;20515;-70
2023/10/22 05:58:39;;;;;;;17.30;9.82;;;;;;;;;;4976161;28;20034;-69
2023/10/22 06:01:05;;;;;;;20.92;10.18;;;;;;;;;;4975479;28;20039;-71
2023/10/22 06:03:31;;;;;;;20.88;10.60;;;;;;;;;;4974927;28;20025;-70
2023/10/22 06:05:57;;;;;;;26.27;10.45;;;;;;;;;;4975830;28;20392;-70
2023/10/22 06:08:22;;;;;;;24.05;9.93;;;;;;;;;;4975481;28;20031;-71
2023/10/22 06:10:48;;;;;;;26.25;10.45;;;;;;;;;;4975266;28;20456;-71
2023/10/22 06:13:14;;;;;;;16.48;10.40;;;;;;;;;;4975948;28;20026;-70
2023/10/22 06:15:42;;;;;;;18.00;10.32;;;;;;;;;;4975670;28;20027;-70
2023/10/22 06:18:08;;;;;;;14.60;9.30;;;;;;;;;;4974929;28;20026;-71
2023/10/22 06:20:36;;;;;;;22.73;10.75;;;;;;;;;;4975699;28;20035;-70
2023/10/22 06:23:04;;;;;;;22.60;10.80;;;;;;;;;;4975610;28;20023;-71
2023/10/22 06:25:33;;;;;;;22.25;10.80;;;;;;;;;;4975593;28;20085;-72
2023/10/22 06:28:02;;;;;;;21.98;10.68;;;;;;;;;;4973764;28;20032;-71
2023/10/22 06:30:28;;;;;;;30.27;11.13;;;;;;;;;;4974064;28;20386;-70
2023/10/22 06:32:58;;;;;;;28.15;11.25;;;;;;;;;;4975519;28;20453;-71
2023/10/22 06:35:28;;;;;;;19.67;10.40;;;;;;;;;;4974729;28;20031;-72
2023/10/22 06:37:53;;;;;;;18.40;10.10;;;;;;;;;;4975579;28;20031;-71
2023/10/22 06:40:21;;;;;;;20.13;11.07;;;;;;;;;;4974016;28;20492;-71
2023/10/22 06:42:48;;;;;;;17.02;9.63;;;;;;;;;;4972569;28;20019;-71
2023/10/22 06:45:14;;;;;;;19.20;10.23;;;;;;;;;;4975818;28;20026;-71
2023/10/22 06:47:40;;;;;;;20.02;10.18;;;;;;;;;;4974976;28;20029;-72
2023/10/22 06:50:08;;;;;;;18.75;10.00;;;;;;;;;;4974870;28;20117;-71
2023/10/22 06:52:38;;;;;;;18.80;10.45;;;;;;;;;;4974985;28;20030;-71
2023/10/22 06:55:05;;;;;;;20.63;9.85;;;;;;;;;;4966885;28;20035;-71
2023/10/22 06:57:30;;;;;;;24.15;11.15;;;;;;;;;;4974777;28;20402;-71
2023/10/22 06:59:57;;;;;;;30.15;13.13;;;;;;;;;;4972780;28;20039;-74
2023/10/22 07:02:26;;;;;;;23.00;10.77;;;;;;;;;;4974889;28;20141;-69
2023/10/22 07:04:56;;;;;;;19.80;10.43;;;;;;;;;;4973902;28;20043;-72
2023/10/22 07:07:23;;;;;;;15.90;9.70;;;;;;;;;;4973231;28;20035;-71
2023/10/22 07:09:49;;;;;;;18.10;11.23;;;;;;;;;;4974332;28;20073;-71
2023/10/22 07:12:16;;;;;;;15.98;9.88;;;;;;;;;;4969840;28;20031;-72
2023/10/22 07:14:42;;;;;;;27.45;11.10;;;;;;;;;;4973057;28;20033;-71
2023/10/22 07:17:08;;;;;;;26.67;11.05;;;;;;;;;;4973000;28;20113;-71
2023/10/22 07:19:34;;;;;;;22.52;11.32;;;;;;;;;;4973270;28;20564;-71
2023/10/22 07:22:00;;;;;;;37.38;12.10;;;;;;;;;;4974298;28;20042;-71
2023/10/22 07:24:26;;;;;;;26.67;12.77;;;;;;;;;;4972926;28;20019;-71
2023/10/22 07:26:52;;;;;;;37.72;13.63;;;;;;;;;;4973905;28;20133;-70
2023/10/22 07:29:18;;;;;;;29.27;13.38;;;;;;;;;;4974575;28;20434;-71
2023/10/22 07:31:46;;;;;;;22.10;11.63;;;;;;;;;;4974314;28;20031;-72
2023/10/22 07:34:12;;;;;;;25.90;12.02;;;;;;;;;;4974098;28;20037;-71
2023/10/22 07:36:38;;;;;;;20.30;10.68;;;;;;;;;;4974132;28;20122;-70
2023/10/22 07:39:04;;;;;;;23.42;11.25;;;;;;;;;;4973792;28;20106;-70
2023/10/22 07:41:30;;;;;;;21.58;10.65;;;;;;;;;;4973752;28;20034;-70
2023/10/22 07:43:55;;;;;;;22.98;11.40;;;;;;;;;;4968365;28;20070;-71
2023/10/22 07:46:21;;;;;;;23.85;10.27;;;;;;;;;;4956524;28;20051;-71
2023/10/22 07:48:46;;;;;;;25.75;10.48;;;;;;;;;;4954529;28;20023;-70
2023/10/22 07:51:19;;;;;;;25.90;11.63;;;;;;;;;;4953853;28;20059;-72
2023/10/22 07:53:46;;;;;;;19.88;10.95;;;;;;;;;;4970987;28;20081;-71
2023/10/22 07:56:15;;;;;;;30.60;15.63;;;;;;;;;;4971442;28;20038;-70
2023/10/22 07:58:41;;;;;;;26.63;10.70;;;;;;;;;;4973840;28;20062;-70
2023/10/22 08:01:07;;;;;;;19.45;10.57;;;;;;;;;;4972051;28;20551;-71
2023/10/22 08:03:34;;;;;;;26.65;10.70;;;;;;;;;;4973296;28;20035;-71
2023/10/22 08:06:02;;;;;;;20.95;10.38;;;;;;;;;;4972853;28;20026;-71
2023/10/22 08:08:29;;;;;;;20.70;9.52;;;;;;;;;;4973240;28;20054;-71
2023/10/22 08:10:58;;;;;;;18.30;10.05;;;;;;;;;;4963340;28;20031;-71
2023/10/22 08:13:24;;;;;;;23.20;10.15;;;;;;;;;;4963341;28;20042;-71
2023/10/22 08:15:52;;;;;;;20.45;10.15;;;;;;;;;;4962478;28;20015;-71
2023/10/22 08:18:21;;;;;;;20.58;9.00;;;;;;;;;;4962553;28;20030;-71
2023/10/22 08:20:46;;;;;;;19.98;8.68;;;;;;;;;;4964084;28;20031;-71
2023/10/22 08:23:12;;;;;;;23.10;9.90;;;;;;;;;;4962570;28;20031;-71
2023/10/22 08:25:38;;;;;;;19.08;8.55;;;;;;;;;;4962533;28;20026;-70
2023/10/22 08:28:04;;;;;;;17.58;8.82;;;;;;;;;;4963138;28;20035;-72
2023/10/22 08:30:29;;;;;;;24.02;8.77;;;;;;;;;;4961693;28;20034;-70
2023/10/22 08:32:55;;;;;;;19.30;8.57;;;;;;;;;;4962492;28;20500;-71
2023/10/22 08:35:21;;;;;;;14.57;7.90;;;;;;;;;;4962714;28;20109;-69
2023/10/22 08:37:47;;;;;;;19.45;8.70;;;;;;;;;;4963655;28;20049;-72
2023/10/22 08:40:13;;;;;;;21.90;9.18;;;;;;;;;;4962403;28;20023;-70
2023/10/22 08:42:39;;;;;;;18.38;8.93;;;;;;;;;;4947095;28;20035;-70
2023/10/22 08:45:09;;;;;;;19.00;8.77;;;;;;;;;;4963656;28;20037;-70
2023/10/22 08:47:35;;;;;;;15.02;7.53;;;;;;;;;;4966150;28;20333;-71
2023/10/22 08:50:02;;;;;;;16.23;7.72;;;;;;;;;;4972598;28;20549;-70
2023/10/22 08:52:28;;;;;;;20.48;8.02;;;;;;;;;;4972730;28;20066;-71
2023/10/22 08:54:54;;;;;;;20.02;8.63;;;;;;;;;;4972540;28;20065;-70
2023/10/22 08:57:22;;;;;;;18.75;7.40;;;;;;;;;;4971198;28;20496;-72
2023/10/22 08:59:48;;;;;;;13.68;8.07;;;;;;;;;;4972009;28;20442;-71
2023/10/22 09:02:26;;;;;;;17.63;8.40;;;;;;;;;;4972647;28;20027;-71
2023/10/22 09:04:53;;;;;;;15.35;7.60;;;;;;;;;;4972659;28;20034;-70
2023/10/22 09:07:19;;;;;;;17.40;7.93;;;;;;;;;;4972179;28;20026;-71
2023/10/22 09:09:45;;;;;;;13.48;7.45;;;;;;;;;;4972859;28;20042;-70
2023/10/22 09:12:10;;;;;;;15.32;8.30;;;;;;;;;;4970794;28;20068;-70
2023/10/22 09:14:37;;;;;;;17.05;7.82;;;;;;;;;;4988213;28;20039;-71
2023/10/22 09:17:19;;;;;;;17.45;7.95;;;;;;;;;;4991321;28;20027;-71
2023/10/22 09:19:49;;;;;;;16.05;7.35;;;;;;;;;;4991434;28;20113;-70
2023/10/22 09:22:26;;;;;;;14.95;7.30;;;;;;;;;;4988762;28;20244;-70
2023/10/22 09:24:57;;;;;;;19.48;8.88;;;;;;;;;;4967626;28;20042;-71
2023/10/22 09:27:28;;;;;;;23.13;9.93;;;;;;;;;;4972192;28;20473;-70
2023/10/22 09:29:55;;;;;;;15.38;8.35;;;;;;;;;;4972163;28;20035;-70
2023/10/22 09:32:22;;;;;;;15.10;7.57;;;;;;;;;;4972233;28;20564;-71
2023/10/22 09:34:47;;;;;;;18.08;7.95;;;;;;;;;;4972569;28;20437;-70
2023/10/22 09:37:13;;;;;;;14.27;7.65;;;;;;;;;;4972000;28;20031;-71
2023/10/22 09:39:43;;;;;;;28.13;9.00;;;;;;;;;;4962994;28;20035;-70
2023/10/22 09:42:09;;;;;;;18.45;7.70;;;;;;;;;;4954492;28;20037;-71
2023/10/22 09:44:37;;;;;;;23.08;8.68;;;;;;;;;;4966722;28;20038;-70
2023/10/22 09:47:06;;;;;;;16.05;8.75;;;;;;;;;;4961187;28;20031;-71
2023/10/22 09:49:37;;;;;;;26.25;9.50;;;;;;;;;;4957622;28;20039;-71
2023/10/22 09:52:06;;;;;;;19.23;9.10;;;;;;;;;;4955076;28;20129;-70
2023/10/22 09:54:38;;;;;;;18.65;9.32;;;;;;;;;;4951851;28;20397;-69
2023/10/22 09:57:11;;;;;;;21.42;9.15;;;;;;;;;;4951830;29;20039;-69
2023/10/22 09:59:39;;;;;;;34.42;19.33;;;;;;;;;;4952645;28;20071;-69
2023/10/22 10:02:13;;;;;;;39.10;20.23;;;;;;;;;;4952939;28;20023;-69
2023/10/22 10:04:40;;;;;;;33.58;16.25;;;;;;;;;;4952157;28;20086;-69
2023/10/22 10:07:06;;;;;;;31.33;13.35;;;;;;;;;;4952245;28;20050;-69
2023/10/22 10:09:34;;;;;;;28.58;13.30;;;;;;;;;;4956697;28;20050;-70
2023/10/22 10:12:03;;;;;;;20.52;11.43;;;;;;;;;;4971785;28;20026;-70
2023/10/22 10:14:45;;;;;;;21.08;11.48;;;;;;;;;;4970710;28;20031;-70
2023/10/22 10:17:14;;;;;;;18.80;8.77;;;;;;;;;;4971950;28;20047;-69
2023/10/22 10:19:39;;;;;;;18.88;7.82;;;;;;;;;;4971394;28;20347;-69
2023/10/22 10:22:06;;;;;;;19.27;8.10;;;;;;;;;;4971554;28;20110;-70
2023/10/22 10:24:33;;;;;;;16.92;7.50;;;;;;;;;;4971802;28;20118;-69
2023/10/22 10:26:58;;;;;;;16.27;8.23;;;;;;;;;;4971829;28;20038;-69
2023/10/22 10:29:24;;;;;;;14.75;8.10;;;;;;;;;;4971875;28;20026;-69
2023/10/22 10:31:51;;;;;;;15.93;7.90;;;;;;;;;;4971820;28;20035;-70
2023/10/22 10:34:36;;;;;;;24.67;10.27;;;;;;;;;;4973539;28;20469;-70
2023/10/22 10:37:12;;;;;;;22.17;10.70;;;;;;;;;;4975103;28;20388;-69
2023/10/22 10:39:42;;;;;;;22.67;10.90;;;;;;;;;;4975511;28;20478;-69
2023/10/22 10:42:10;;;;;;;25.77;11.20;;;;;;;;;;4975179;28;20065;-69
2023/10/22 10:44:54;;;;;;;25.45;10.80;;;;;;;;;;4974744;28;20319;-68
2023/10/22 10:47:20;;;;;;;27.85;10.88;;;;;;;;;;4974691;28;20122;-69
2023/10/22 10:50:03;;;;;;;20.77;10.55;;;;;;;;;;4974831;28;20054;-69
2023/10/22 10:52:49;;;;;;;24.85;10.95;;;;;;;;;;4974818;28;20118;-70
2023/10/22 10:55:15;;;;;;;22.25;10.98;;;;;;;;;;4977624;28;20105;-69
2023/10/22 10:57:51;;;;;;;34.30;11.45;;;;;;;;;;4974732;28;20102;-69
2023/10/22 11:00:22;;;;;;;27.00;9.90;;;;;;;;;;4974691;28;20046;-70
2023/10/22 11:02:51;;;;;;;17.40;9.32;;;;;;;;;;4975193;28;20091;-69
2023/10/22 11:05:45;;;;;;;21.77;9.15;;;;;;;;;;4970040;28;20042;-69
2023/10/22 11:08:12;;;;;;;25.45;11.00;;;;;;;;;;4974377;28;20043;-70
2023/10/22 11:10:38;;;;;;;24.33;10.07;;;;;;;;;;4974953;28;20086;-68
2023/10/22 11:13:06;;;;;;;21.80;9.15;;;;;;;;;;4974722;28;20057;-69
2023/10/22 11:15:37;;;;;;;24.08;9.88;;;;;;;;;;4974623;28;20035;-69
2023/10/22 11:18:07;;;;;;;25.90;10.10;;;;;;;;;;4974496;28;20401;-69
2023/10/22 11:20:34;;;;;;;25.55;10.25;;;;;;;;;;4974317;28;20200;-69
2023/10/22 11:23:00;;;;;;;20.80;9.27;;;;;;;;;;4974662;28;20025;-69
2023/10/22 11:25:27;;;;;;;20.80;9.85;;;;;;;;;;4974253;28;20038;-69
2023/10/22 11:27:55;;;;;;;26.63;9.82;;;;;;;;;;4973991;28;20481;-69
2023/10/22 11:30:38;;;;;;;15.35;9.73;;;;;;;;;;4974057;28;20530;-70
2023/10/22 11:33:08;;;;;;;28.23;10.77;;;;;;;;;;4974201;28;20039;-68
2023/10/22 11:35:34;;;;;;;20.52;10.52;;;;;;;;;;4974285;28;20437;-69
2023/10/22 11:38:00;;;;;;;21.52;9.90;;;;;;;;;;4974165;28;20082;-69
2023/10/22 11:40:39;;;;;;;22.50;10.55;;;;;;;;;;4974088;28;20047;-68
2023/10/22 11:43:16;;;;;;;21.13;9.43;;;;;;;;;;4973472;28;20454;-69
2023/10/22 11:45:53;;;;;;;19.42;9.55;;;;;;;;;;4972776;28;20449;-69
2023/10/22 11:48:21;;;;;;;22.30;10.68;;;;;;;;;;4973369;28;20039;-69
2023/10/22 11:51:05;;;;;;;21.85;10.02;;;;;;;;;;4973715;28;20103;-69
2023/10/22 11:53:41;;;;;;;17.90;8.63;;;;;;;;;;4974344;28;20035;-68
2023/10/22 11:56:06;;;;;;;18.83;9.23;;;;;;;;;;4973767;28;20027;-69
2023/10/22 11:58:32;;;;;;;19.65;8.95;;;;;;;;;;4973826;28;20031;-70
2023/10/22 12:00:58;;;;;;;22.88;9.57;;;;;;;;;;4974151;28;20461;-68
2023/10/22 12:03:24;;;;;;;24.15;9.52;;;;;;;;;;4974415;28;20393;-69
2023/10/22 12:05:50;;;;;;;17.52;8.32;;;;;;;;;;4988742;28;20073;-69
2023/10/22 12:08:16;;;;;;;20.92;9.00;;;;;;;;;;4973196;28;20059;-69
2023/10/22 12:10:42;;;;;;;19.88;10.52;;;;;;;;;;4972052;28;20037;-69
2023/10/22 12:13:10;;;;;;;25.05;11.63;;;;;;;;;;4973288;28;20026;-68
2023/10/22 12:15:36;;;;;;;20.50;9.98;;;;;;;;;;4973514;28;20458;-69
2023/10/22 12:18:02;;;;;;;22.80;11.23;;;;;;;;;;4973174;28;20058;-69
2023/10/22 12:20:28;;;;;;;18.17;9.30;;;;;;;;;;4973349;28;20046;-69
2023/10/22 12:22:53;;;;;;;27.30;9.93;;;;;;;;;;4972959;28;20109;-69
2023/10/22 12:25:19;;;;;;;16.75;9.77;;;;;;;;;;4972982;28;20035;-69
2023/10/22 12:27:45;;;;;;;24.73;12.00;;;;;;;;;;4973097;28;20027;-69
2023/10/22 12:30:11;;;;;;;19.90;10.75;;;;;;;;;;4973147;28;20039;-69
2023/10/22 12:32:36;;;;;;;22.08;10.57;;;;;;;;;;4973675;28;20030;-69
2023/10/22 12:35:04;;;;;;;23.85;11.50;;;;;;;;;;4972713;28;20057;-68
2023/10/22 12:37:30;;;;;;;21.25;10.68;;;;;;;;;;4972955;28;20033;-69
2023/10/22 12:39:56;;;;;;;22.33;9.90;;;;;;;;;;4987925;28;20489;-70
2023/10/22 12:42:24;;;;;;;20.98;8.98;;;;;;;;;;4971610;28;20023;-69
2023/10/22 12:44:49;;;;;;;19.48;10.45;;;;;;;;;;4973287;28;20485;-69
2023/10/22 12:47:15;;;;;;;18.75;9.15;;;;;;;;;;4973108;28;20027;-69
2023/10/22 12:49:42;;;;;;;23.88;9.50;;;;;;;;;;4973115;28;20391;-69
2023/10/22 12:52:11;;;;;;;27.08;9.18;;;;;;;;;;4973012;28;20023;-70
2023/10/22 12:54:38;;;;;;;18.48;8.82;;;;;;;;;;4972873;28;20034;-69
2023/10/22 12:57:05;;;;;;;20.20;9.38;;;;;;;;;;4972172;28;20026;-69
2023/10/22 12:59:32;;;;;;;19.60;8.73;;;;;;;;;;4973369;28;20030;-69
2023/10/22 13:01:59;;;;;;;24.50;9.02;;;;;;;;;;4973405;28;20101;-69
2023/10/22 13:04:25;;;;;;;18.95;7.97;;;;;;;;;;4971738;28;20035;-69
2023/10/22 13:06:50;;;;;;;16.95;8.00;;;;;;;;;;4972696;28;20045;-68
2023/10/22 13:09:16;;;;;;;21.92;9.35;;;;;;;;;;4972684;28;20043;-70
2023/10/22 13:11:42;;;;;;;16.50;9.05;;;;;;;;;;4972802;28;20038;-69
2023/10/22 13:14:08;;;;;;;24.77;9.40;;;;;;;;;;4973116;28;20477;-69
2023/10/22 13:16:34;;;;;;;22.05;10.38;;;;;;;;;;4972804;28;20098;-70
2023/10/22 13:18:59;;;;;;;23.05;9.93;;;;;;;;;;4973282;28;20054;-68
2023/10/22 13:21:25;;;;;;;19.20;9.82;;;;;;;;;;4972885;28;20125;-70
2023/10/22 13:23:51;;;;;;;21.20;9.40;;;;;;;;;;4973168;28;20042;-69
2023/10/22 13:26:16;;;;;;;18.52;8.82;;;;;;;;;;4973016;28;20027;-68
2023/10/22 13:28:42;;;;;;;16.52;8.20;;;;;;;;;;4972672;28;20127;-70
2023/10/22 13:31:09;;;;;;;20.17;8.90;;;;;;;;;;4971512;28;20034;-70
2023/10/22 13:33:38;;;;;;;23.17;9.40;;;;;;;;;;4972829;28;20050;-68
2023/10/22 13:36:04;;;;;;;19.17;9.00;;;;;;;;;;4972719;28;20023;-69
2023/10/22 13:38:31;;;;;;;19.17;7.88;;;;;;;;;;4972497;28;20393;-69
2023/10/22 13:40:56;;;;;;;16.85;7.45;;;;;;;;;;4973490;28;20027;-71
2023/10/22 13:43:22;;;;;;;17.08;7.90;;;;;;;;;;4973474;28;20711;-70
2023/10/22 13:45:48;;;;;;;14.60;7.07;;;;;;;;;;4972015;28;20080;-69
2023/10/22 13:48:14;;;;;;;22.77;8.50;;;;;;;;;;4972526;28;20038;-69
2023/10/22 13:50:39;;;;;;;21.55;8.73;;;;;;;;;;4972921;28;20085;-70
2023/10/22 13:53:06;;;;;;;18.83;7.80;;;;;;;;;;4972832;28;20085;-69
2023/10/22 13:55:31;;;;;;;19.60;8.35;;;;;;;;;;4972817;28;20509;-69
2023/10/22 13:57:57;;;;;;;21.42;6.88;;;;;;;;;;4972636;28;20085;-69
2023/10/22 14:00:23;;;;;;;15.25;6.95;;;;;;;;;;4972173;28;20468;-70
2023/10/22 14:02:48;;;;;;;24.38;8.32;;;;;;;;;;4972334;28;20043;-69
2023/10/22 14:05:14;;;;;;;20.88;7.90;;;;;;;;;;4972445;28;20026;-69
2023/10/22 14:07:40;;;;;;;18.27;7.50;;;;;;;;;;4973001;28;20038;-69
2023/10/22 14:10:07;;;;;;;17.95;7.25;;;;;;;;;;4976099;28;20022;-69
2023/10/22 14:12:33;;;;;;;20.80;7.88;;;;;;;;;;4975891;28;20042;-71
2023/10/22 14:14:59;;;;;;;25.80;9.05;;;;;;;;;;4973387;28;20029;-69
2023/10/22 14:17:25;;;;;;;18.75;9.32;;;;;;;;;;4974895;28;20393;-69
2023/10/22 14:19:54;;;;;;;18.85;8.15;;;;;;;;;;4990170;28;20037;-69
2023/10/22 14:22:21;;;;;;;19.38;8.70;;;;;;;;;;4975512;28;20467;-68